<?xml version="1.0" encoding="UTF-8" standalone="no" ?>
<gpx xmlns="http://www.topografix.com/GPX/1/1" xmlns:xsi="http://www.w3.org/2001/XMLSchema-instance" xsi:schemaLocation="http://www.topografix.com/GPX/1/1 http://www.topografix.com/GPX/1/1/gpx.xsd" version="1.1" creator="VisuGPX - https://www.visugpx.com">
  <metadata>
    <name>Rando LN</name>
  </metadata>
  <trk>
    <name><![CDATA[Gramat]]></name>
    <trkseg>
      <trkpt lat="44.80443" lon="1.62768">
        <ele>257.7</ele>
      </trkpt>
      <trkpt lat="44.80443" lon="1.62768">
        <ele>257.7</ele>
      </trkpt>
      <trkpt lat="44.80443" lon="1.62768">
        <ele>257.7</ele>
      </trkpt>
      <trkpt lat="44.80443" lon="1.62768">
        <ele>257.7</ele>
      </trkpt>
      <trkpt lat="44.80443" lon="1.62768">
        <ele>257.7</ele>
      </trkpt>
      <trkpt lat="44.80443" lon="1.62768">
        <ele>257.7</ele>
      </trkpt>
      <trkpt lat="44.80443" lon="1.62768">
        <ele>257.7</ele>
      </trkpt>
      <trkpt lat="44.80444" lon="1.62721">
        <ele>257.4</ele>
      </trkpt>
      <trkpt lat="44.80397" lon="1.62725">
        <ele>256.2</ele>
      </trkpt>
      <trkpt lat="44.80391" lon="1.62671">
        <ele>251.8</ele>
      </trkpt>
      <trkpt lat="44.80399" lon="1.62611">
        <ele>246.2</ele>
      </trkpt>
      <trkpt lat="44.80402" lon="1.62391">
        <ele>225.1</ele>
      </trkpt>
      <trkpt lat="44.80361" lon="1.62284">
        <ele>211.5</ele>
      </trkpt>
      <trkpt lat="44.80246" lon="1.62095">
        <ele>193.1</ele>
      </trkpt>
      <trkpt lat="44.80193" lon="1.62022">
        <ele>190.2</ele>
      </trkpt>
      <trkpt lat="44.80248" lon="1.62281">
        <ele>150.208</ele>
        <time>2015-08-04T15:55:35Z</time>
      </trkpt>
      <trkpt lat="44.80255" lon="1.62367">
        <ele>149.628</ele>
        <time>2015-08-04T15:55:55Z</time>
      </trkpt>
      <trkpt lat="44.80238" lon="1.62426">
        <ele>146.613</ele>
        <time>2015-08-04T15:56:15Z</time>
      </trkpt>
      <trkpt lat="44.80174" lon="1.62506">
        <ele>146.663</ele>
        <time>2015-08-04T15:56:35Z</time>
      </trkpt>
      <trkpt lat="44.80125" lon="1.62584">
        <ele>147.675</ele>
        <time>2015-08-04T15:56:55Z</time>
      </trkpt>
      <trkpt lat="44.80098" lon="1.62675">
        <ele>150.767</ele>
        <time>2015-08-04T15:57:15Z</time>
      </trkpt>
      <trkpt lat="44.80074" lon="1.62905">
        <ele>153.348</ele>
        <time>2015-08-04T15:57:35Z</time>
      </trkpt>
      <trkpt lat="44.8005" lon="1.63003">
        <ele>151.154</ele>
        <time>2015-08-04T15:57:55Z</time>
      </trkpt>
      <trkpt lat="44.8001" lon="1.6313">
        <ele>150.016</ele>
        <time>2015-08-04T15:58:15Z</time>
      </trkpt>
      <trkpt lat="44.79976" lon="1.63193">
        <ele>145.798</ele>
        <time>2015-08-04T15:58:35Z</time>
      </trkpt>
      <trkpt lat="44.79977" lon="1.63237">
        <ele>147.915</ele>
        <time>2015-08-04T15:58:55Z</time>
      </trkpt>
      <trkpt lat="44.79962" lon="1.63293">
        <ele>151.226</ele>
        <time>2015-08-04T15:59:15Z</time>
      </trkpt>
      <trkpt lat="44.79938" lon="1.63459">
        <ele>154.108</ele>
        <time>2015-08-04T15:59:35Z</time>
      </trkpt>
      <trkpt lat="44.7991" lon="1.63558">
        <ele>155.315</ele>
        <time>2015-08-04T15:59:55Z</time>
      </trkpt>
      <trkpt lat="44.79879" lon="1.63586">
        <ele>152.53</ele>
        <time>2015-08-04T16:00:15Z</time>
      </trkpt>
      <trkpt lat="44.79823" lon="1.63614">
        <ele>152.14</ele>
        <time>2015-08-04T16:00:35Z</time>
      </trkpt>
      <trkpt lat="44.79774" lon="1.63617">
        <ele>157.212</ele>
        <time>2015-08-04T16:00:55Z</time>
      </trkpt>
      <trkpt lat="44.79726" lon="1.6359">
        <ele>150.654</ele>
        <time>2015-08-04T16:01:15Z</time>
      </trkpt>
      <trkpt lat="44.79681" lon="1.63581">
        <ele>151.025</ele>
        <time>2015-08-04T16:01:35Z</time>
      </trkpt>
      <trkpt lat="44.79614" lon="1.63621">
        <ele>151.471</ele>
        <time>2015-08-04T16:01:55Z</time>
      </trkpt>
      <trkpt lat="44.79574" lon="1.63684">
        <ele>154.013</ele>
        <time>2015-08-04T16:02:15Z</time>
      </trkpt>
      <trkpt lat="44.79505" lon="1.63939">
        <ele>159.357</ele>
        <time>2015-08-04T16:02:35Z</time>
      </trkpt>
      <trkpt lat="44.79473" lon="1.6401">
        <ele>152.6</ele>
        <time>2015-08-04T16:02:55Z</time>
      </trkpt>
      <trkpt lat="44.79474" lon="1.64066">
        <ele>153.82</ele>
        <time>2015-08-04T16:03:15Z</time>
      </trkpt>
      <trkpt lat="44.79498" lon="1.6416">
        <ele>157.708</ele>
        <time>2015-08-04T16:03:35Z</time>
      </trkpt>
      <trkpt lat="44.79576" lon="1.64281">
        <ele>157.621</ele>
        <time>2015-08-04T16:03:55Z</time>
      </trkpt>
      <trkpt lat="44.79598" lon="1.64293">
        <ele>157.116</ele>
        <time>2015-08-04T16:04:15Z</time>
      </trkpt>
      <trkpt lat="44.79642" lon="1.64273">
        <ele>161.366</ele>
        <time>2015-08-04T16:04:35Z</time>
      </trkpt>
      <trkpt lat="44.79698" lon="1.6423">
        <ele>169.748</ele>
        <time>2015-08-04T16:04:55Z</time>
      </trkpt>
      <trkpt lat="44.79818" lon="1.64227">
        <ele>162.03</ele>
        <time>2015-08-04T16:05:15Z</time>
      </trkpt>
      <trkpt lat="44.79851" lon="1.64195">
        <ele>168.041</ele>
        <time>2015-08-04T16:05:35Z</time>
      </trkpt>
      <trkpt lat="44.79878" lon="1.64193">
        <ele>169.277</ele>
        <time>2015-08-04T16:05:55Z</time>
      </trkpt>
      <trkpt lat="44.79902" lon="1.64227">
        <ele>165.969</ele>
        <time>2015-08-04T16:06:15Z</time>
      </trkpt>
      <trkpt lat="44.79933" lon="1.64335">
        <ele>162.735</ele>
        <time>2015-08-04T16:06:35Z</time>
      </trkpt>
      <trkpt lat="44.79919" lon="1.6439">
        <ele>159.586</ele>
        <time>2015-08-04T16:06:55Z</time>
      </trkpt>
      <trkpt lat="44.79937" lon="1.64494">
        <ele>166.714</ele>
        <time>2015-08-04T16:07:15Z</time>
      </trkpt>
      <trkpt lat="44.79946" lon="1.64587">
        <ele>165.408</ele>
        <time>2015-08-04T16:07:35Z</time>
      </trkpt>
      <trkpt lat="44.79947" lon="1.64662">
        <ele>164.849</ele>
        <time>2015-08-04T16:07:55Z</time>
      </trkpt>
      <trkpt lat="44.79982" lon="1.64794">
        <ele>168.384</ele>
        <time>2020-03-06T20:35:17Z</time>
      </trkpt>
      <trkpt lat="44.79982" lon="1.64851">
        <ele>170.274</ele>
        <time>2020-03-06T20:35:37Z</time>
      </trkpt>
      <trkpt lat="44.79946" lon="1.64958">
        <ele>171.236</ele>
        <time>2020-03-06T20:35:57Z</time>
      </trkpt>
      <trkpt lat="44.79968" lon="1.65026">
        <ele>174.228</ele>
        <time>2020-03-06T20:36:17Z</time>
      </trkpt>
      <trkpt lat="44.79947" lon="1.65045">
        <ele>168.919</ele>
        <time>2020-03-06T20:36:37Z</time>
      </trkpt>
      <trkpt lat="44.79963" lon="1.65103">
        <ele>170.025</ele>
        <time>2020-03-06T20:36:57Z</time>
      </trkpt>
      <trkpt lat="44.7999" lon="1.65138">
        <ele>173.817</ele>
        <time>2020-03-06T20:37:17Z</time>
      </trkpt>
      <trkpt lat="44.79977" lon="1.65244">
        <ele>177.859</ele>
        <time>2020-03-06T20:37:37Z</time>
      </trkpt>
      <trkpt lat="44.79961" lon="1.65253">
        <ele>179.903</ele>
        <time>2020-03-06T20:37:57Z</time>
      </trkpt>
      <trkpt lat="44.79916" lon="1.6527">
        <ele>187.123</ele>
        <time>2015-08-04T16:11:15Z</time>
      </trkpt>
      <trkpt lat="44.79877" lon="1.65327">
        <ele>192.808</ele>
        <time>2020-03-06T20:38:37Z</time>
      </trkpt>
      <trkpt lat="44.79858" lon="1.65385">
        <ele>197.061</ele>
        <time>2020-03-06T20:38:57Z</time>
      </trkpt>
      <trkpt lat="44.79853" lon="1.65435">
        <ele>195.656</ele>
        <time>2020-03-06T20:39:17Z</time>
      </trkpt>
      <trkpt lat="44.7986" lon="1.65457">
        <ele>191.756</ele>
        <time>2020-03-06T20:39:37Z</time>
      </trkpt>
      <trkpt lat="44.79876" lon="1.65486">
        <ele>191.398</ele>
        <time>2020-03-06T20:39:57Z</time>
      </trkpt>
      <trkpt lat="44.79876" lon="1.6553">
        <ele>187.17</ele>
        <time>2020-03-06T20:40:17Z</time>
      </trkpt>
      <trkpt lat="44.79855" lon="1.65538">
        <ele>196.491</ele>
        <time>2020-03-06T20:40:37Z</time>
      </trkpt>
      <trkpt lat="44.79839" lon="1.65574">
        <ele>206.787</ele>
        <time>2020-03-06T20:40:57Z</time>
      </trkpt>
      <trkpt lat="44.79845" lon="1.65635">
        <ele>198.949</ele>
        <time>2020-03-06T20:41:17Z</time>
      </trkpt>
      <trkpt lat="44.79866" lon="1.65647">
        <ele>193.137</ele>
        <time>2020-03-06T20:41:37Z</time>
      </trkpt>
      <trkpt lat="44.79903" lon="1.65629">
        <ele>184.149</ele>
        <time>2020-03-06T20:41:57Z</time>
      </trkpt>
      <trkpt lat="44.79957" lon="1.65663">
        <ele>181.413</ele>
        <time>2020-03-06T20:42:17Z</time>
      </trkpt>
      <trkpt lat="44.80008" lon="1.65663">
        <ele>184.808</ele>
        <time>2020-03-06T20:42:37Z</time>
      </trkpt>
      <trkpt lat="44.80042" lon="1.65709">
        <ele>191.919</ele>
        <time>2020-03-06T20:42:57Z</time>
      </trkpt>
      <trkpt lat="44.80066" lon="1.65777">
        <ele>196.754</ele>
        <time>2020-03-06T20:43:17Z</time>
      </trkpt>
      <trkpt lat="44.80066" lon="1.65819">
        <ele>195.154</ele>
        <time>2020-03-06T20:43:37Z</time>
      </trkpt>
      <trkpt lat="44.80061" lon="1.65857">
        <ele>189.716</ele>
        <time>2020-03-06T20:43:57Z</time>
      </trkpt>
      <trkpt lat="44.80031" lon="1.65891">
        <ele>184.788</ele>
        <time>2020-03-06T20:44:17Z</time>
      </trkpt>
      <trkpt lat="44.80018" lon="1.65945">
        <ele>189.779</ele>
        <time>2020-03-06T20:44:37Z</time>
      </trkpt>
      <trkpt lat="44.79981" lon="1.65969">
        <ele>189.445</ele>
        <time>2020-03-06T20:44:57Z</time>
      </trkpt>
      <trkpt lat="44.79954" lon="1.66107">
        <ele>188.667</ele>
        <time>2020-03-06T20:45:17Z</time>
      </trkpt>
      <trkpt lat="44.7992" lon="1.66137">
        <ele>187.456</ele>
        <time>2020-03-06T20:45:37Z</time>
      </trkpt>
      <trkpt lat="44.79829" lon="1.66127">
        <ele>188.959</ele>
        <time>2020-03-06T20:45:57Z</time>
      </trkpt>
      <trkpt lat="44.79737" lon="1.66151">
        <ele>191.014</ele>
        <time>2020-03-06T20:46:17Z</time>
      </trkpt>
      <trkpt lat="44.79677" lon="1.66213">
        <ele>196.308</ele>
        <time>2020-03-06T20:46:37Z</time>
      </trkpt>
      <trkpt lat="44.79615" lon="1.66251">
        <ele>193.711</ele>
        <time>2020-03-06T20:46:57Z</time>
      </trkpt>
      <trkpt lat="44.79555" lon="1.66307">
        <ele>200.446</ele>
        <time>2020-03-06T20:47:17Z</time>
      </trkpt>
      <trkpt lat="44.795" lon="1.66327">
        <ele>194.026</ele>
        <time>2020-03-06T20:47:37Z</time>
      </trkpt>
      <trkpt lat="44.79474" lon="1.66333">
        <ele>196.848</ele>
        <time>2020-03-06T20:47:57Z</time>
      </trkpt>
      <trkpt lat="44.79437" lon="1.66431">
        <ele>199.19</ele>
        <time>2020-03-06T20:48:17Z</time>
      </trkpt>
      <trkpt lat="44.79397" lon="1.66511">
        <ele>201.941</ele>
        <time>2020-03-06T20:48:37Z</time>
      </trkpt>
      <trkpt lat="44.7938" lon="1.66638">
        <ele>200.367</ele>
        <time>2020-03-06T20:48:57Z</time>
      </trkpt>
      <trkpt lat="44.79427" lon="1.66732">
        <ele>204.549</ele>
        <time>2020-03-06T20:49:17Z</time>
      </trkpt>
      <trkpt lat="44.79409" lon="1.66814">
        <ele>200.467</ele>
        <time>2020-03-06T20:49:37Z</time>
      </trkpt>
      <trkpt lat="44.79357" lon="1.66912">
        <ele>200.381</ele>
        <time>2020-03-06T20:49:57Z</time>
      </trkpt>
      <trkpt lat="44.79279" lon="1.66988">
        <ele>203.619</ele>
        <time>2020-03-06T20:50:17Z</time>
      </trkpt>
      <trkpt lat="44.79203" lon="1.67038">
        <ele>209.508</ele>
        <time>2020-03-06T20:50:37Z</time>
      </trkpt>
      <trkpt lat="44.7914" lon="1.67017">
        <ele>216.492</ele>
        <time>2020-03-06T20:50:57Z</time>
      </trkpt>
      <trkpt lat="44.79141" lon="1.67045">
        <ele>223.277</ele>
        <time>2020-03-06T20:51:17Z</time>
      </trkpt>
      <trkpt lat="44.79118" lon="1.67041">
        <ele>231.967</ele>
        <time>2020-03-06T20:51:37Z</time>
      </trkpt>
      <trkpt lat="44.79124" lon="1.67072">
        <ele>236.869</ele>
        <time>2020-03-06T20:51:57Z</time>
      </trkpt>
      <trkpt lat="44.79089" lon="1.67053">
        <ele>250.071</ele>
        <time>2020-03-06T20:52:17Z</time>
      </trkpt>
      <trkpt lat="44.79092" lon="1.67003">
        <ele>242.812</ele>
        <time>2020-03-06T20:52:37Z</time>
      </trkpt>
      <trkpt lat="44.791" lon="1.66957">
        <ele>227.788</ele>
        <time>2020-03-06T20:52:57Z</time>
      </trkpt>
      <trkpt lat="44.79096" lon="1.66935">
        <ele>226.89</ele>
        <time>2020-03-06T20:53:17Z</time>
      </trkpt>
      <trkpt lat="44.791" lon="1.66902">
        <ele>223.394</ele>
        <time>2020-03-06T20:53:37Z</time>
      </trkpt>
      <trkpt lat="44.7907" lon="1.66889">
        <ele>232.857</ele>
        <time>2020-03-06T20:53:57Z</time>
      </trkpt>
      <trkpt lat="44.79039" lon="1.66907">
        <ele>240.522</ele>
        <time>2020-03-06T20:54:17Z</time>
      </trkpt>
      <trkpt lat="44.79009" lon="1.66961">
        <ele>238.408</ele>
        <time>2020-03-06T20:54:37Z</time>
      </trkpt>
      <trkpt lat="44.79" lon="1.67018">
        <ele>237.045</ele>
        <time>2020-03-06T20:54:57Z</time>
      </trkpt>
      <trkpt lat="44.79" lon="1.67065">
        <ele>240.16</ele>
        <time>2020-03-06T20:55:17Z</time>
      </trkpt>
      <trkpt lat="44.78982" lon="1.67156">
        <ele>243.56</ele>
        <time>2020-03-06T20:55:37Z</time>
      </trkpt>
      <trkpt lat="44.78984" lon="1.67222">
        <ele>243.362</ele>
        <time>2020-03-06T20:55:57Z</time>
      </trkpt>
      <trkpt lat="44.7897" lon="1.67254">
        <ele>241.894</ele>
        <time>2020-03-06T20:56:17Z</time>
      </trkpt>
      <trkpt lat="44.78964" lon="1.67325">
        <ele>247.545</ele>
        <time>2020-03-06T20:56:37Z</time>
      </trkpt>
      <trkpt lat="44.78948" lon="1.67343">
        <ele>248.481</ele>
        <time>2020-03-06T20:56:57Z</time>
      </trkpt>
      <trkpt lat="44.78937" lon="1.67398">
        <ele>251.293</ele>
        <time>2020-03-06T20:57:17Z</time>
      </trkpt>
      <trkpt lat="44.78918" lon="1.67436">
        <ele>256.613</ele>
        <time>2020-03-06T20:57:37Z</time>
      </trkpt>
      <trkpt lat="44.78928" lon="1.67458">
        <ele>253.943</ele>
        <time>2020-03-06T20:57:57Z</time>
      </trkpt>
      <trkpt lat="44.78915" lon="1.67469">
        <ele>257.507</ele>
        <time>2020-03-06T20:58:17Z</time>
      </trkpt>
      <trkpt lat="44.78906" lon="1.67452">
        <ele>259.808</ele>
        <time>2020-03-06T20:58:37Z</time>
      </trkpt>
      <trkpt lat="44.78883" lon="1.67451">
        <ele>265.827</ele>
        <time>2020-03-06T20:58:57Z</time>
      </trkpt>
      <trkpt lat="44.78907" lon="1.6738">
        <ele>263.952</ele>
        <time>2020-03-06T20:59:17Z</time>
      </trkpt>
      <trkpt lat="44.78909" lon="1.67332">
        <ele>268.612</ele>
        <time>2020-03-06T20:59:37Z</time>
      </trkpt>
      <trkpt lat="44.78887" lon="1.67357">
        <ele>272.694</ele>
        <time>2020-03-06T20:59:57Z</time>
      </trkpt>
      <trkpt lat="44.78872" lon="1.67354">
        <ele>273.856</ele>
        <time>2020-03-06T21:00:17Z</time>
      </trkpt>
      <trkpt lat="44.78867" lon="1.6734">
        <ele>275.377</ele>
        <time>2020-03-06T21:00:37Z</time>
      </trkpt>
      <trkpt lat="44.7881" lon="1.67344">
        <ele>280.093</ele>
        <time>2020-03-06T21:00:57Z</time>
      </trkpt>
      <trkpt lat="44.7879" lon="1.67361">
        <ele>281.125</ele>
        <time>2020-03-06T21:01:17Z</time>
      </trkpt>
      <trkpt lat="44.78781" lon="1.67381">
        <ele>281.859</ele>
        <time>2015-08-04T16:34:55Z</time>
      </trkpt>
      <trkpt lat="44.78782" lon="1.67469">
        <ele>284.203</ele>
        <time>2015-08-04T16:35:15Z</time>
      </trkpt>
      <trkpt lat="44.78772" lon="1.67535">
        <ele>288.523</ele>
        <time>2015-08-04T16:35:35Z</time>
      </trkpt>
      <trkpt lat="44.78717" lon="1.67663">
        <ele>296.108</ele>
        <time>2015-08-04T16:35:55Z</time>
      </trkpt>
      <trkpt lat="44.78718" lon="1.67759">
        <ele>297.741</ele>
        <time>2015-08-04T16:36:15Z</time>
      </trkpt>
      <trkpt lat="44.78734" lon="1.67825">
        <ele>301.346</ele>
        <time>2015-08-04T16:36:35Z</time>
      </trkpt>
      <trkpt lat="44.78688" lon="1.67945">
        <ele>306.836</ele>
        <time>2015-08-04T16:36:55Z</time>
      </trkpt>
      <trkpt lat="44.78681" lon="1.68002">
        <ele>308.738</ele>
        <time>2015-08-04T16:37:15Z</time>
      </trkpt>
      <trkpt lat="44.78693" lon="1.68072">
        <ele>312.61</ele>
        <time>2015-08-04T16:37:35Z</time>
      </trkpt>
      <trkpt lat="44.78666" lon="1.68178">
        <ele>312.431</ele>
        <time>2015-08-04T16:37:55Z</time>
      </trkpt>
      <trkpt lat="44.78662" lon="1.68303">
        <ele>316.177</ele>
        <time>2015-08-04T16:38:15Z</time>
      </trkpt>
      <trkpt lat="44.78638" lon="1.6842">
        <ele>318.949</ele>
        <time>2015-08-04T16:38:35Z</time>
      </trkpt>
      <trkpt lat="44.78593" lon="1.6852">
        <ele>319.649</ele>
        <time>2015-08-04T16:38:55Z</time>
      </trkpt>
      <trkpt lat="44.78492" lon="1.68622">
        <ele>320.202</ele>
        <time>2015-08-04T16:39:15Z</time>
      </trkpt>
      <trkpt lat="44.78457" lon="1.68681">
        <ele>319.722</ele>
        <time>2015-08-04T16:39:35Z</time>
      </trkpt>
      <trkpt lat="44.78417" lon="1.68674">
        <ele>318.308</ele>
        <time>2015-08-04T16:39:55Z</time>
      </trkpt>
      <trkpt lat="44.78386" lon="1.68691">
        <ele>316.57</ele>
        <time>2015-08-04T16:40:15Z</time>
      </trkpt>
      <trkpt lat="44.78355" lon="1.68689">
        <ele>313.415</ele>
        <time>2015-08-04T16:40:35Z</time>
      </trkpt>
      <trkpt lat="44.78338" lon="1.68698">
        <ele>312.495</ele>
        <time>2015-08-04T16:40:55Z</time>
      </trkpt>
      <trkpt lat="44.78346" lon="1.68753">
        <ele>313.317</ele>
        <time>2015-08-04T16:41:15Z</time>
      </trkpt>
      <trkpt lat="44.78367" lon="1.68812">
        <ele>312.669</ele>
        <time>2015-08-04T16:41:35Z</time>
      </trkpt>
      <trkpt lat="44.7835" lon="1.68871">
        <ele>312.55</ele>
        <time>2015-08-04T16:41:55Z</time>
      </trkpt>
      <trkpt lat="44.78291" lon="1.68922">
        <ele>306.896</ele>
        <time>2015-08-04T16:42:15Z</time>
      </trkpt>
      <trkpt lat="44.78259" lon="1.6894">
        <ele>305.438</ele>
        <time>2015-08-04T16:42:35Z</time>
      </trkpt>
      <trkpt lat="44.78251" lon="1.68959">
        <ele>305.022</ele>
        <time>2015-08-04T16:42:55Z</time>
      </trkpt>
      <trkpt lat="44.78231" lon="1.6898">
        <ele>303.662</ele>
        <time>2015-08-04T16:43:15Z</time>
      </trkpt>
      <trkpt lat="44.78205" lon="1.68986">
        <ele>301.808</ele>
        <time>2015-08-04T16:43:35Z</time>
      </trkpt>
      <trkpt lat="44.78192" lon="1.69008">
        <ele>300.908</ele>
        <time>2015-08-04T16:43:55Z</time>
      </trkpt>
      <trkpt lat="44.78179" lon="1.69095">
        <ele>299.638</ele>
        <time>2015-08-04T16:44:15Z</time>
      </trkpt>
      <trkpt lat="44.78189" lon="1.6921">
        <ele>302.483</ele>
        <time>2015-08-04T16:44:35Z</time>
      </trkpt>
      <trkpt lat="44.78187" lon="1.69248">
        <ele>303.623</ele>
        <time>2015-08-04T16:44:55Z</time>
      </trkpt>
      <trkpt lat="44.78178" lon="1.6928">
        <ele>304.435</ele>
        <time>2015-08-04T16:45:15Z</time>
      </trkpt>
      <trkpt lat="44.78094" lon="1.69437">
        <ele>302.957</ele>
        <time>2015-08-04T16:45:35Z</time>
      </trkpt>
      <trkpt lat="44.78089" lon="1.69504">
        <ele>300.628</ele>
        <time>2015-08-04T16:45:55Z</time>
      </trkpt>
      <trkpt lat="44.78034" lon="1.69626">
        <ele>300.894</ele>
        <time>2015-08-04T16:46:15Z</time>
      </trkpt>
      <trkpt lat="44.77971" lon="1.69752">
        <ele>301.956</ele>
        <time>2015-08-04T16:46:35Z</time>
      </trkpt>
      <trkpt lat="44.77945" lon="1.69854">
        <ele>302.715</ele>
        <time>2015-08-04T16:46:55Z</time>
      </trkpt>
      <trkpt lat="44.77903" lon="1.6996">
        <ele>302.065</ele>
        <time>2015-08-04T16:47:15Z</time>
      </trkpt>
      <trkpt lat="44.77858" lon="1.70009">
        <ele>304.811</ele>
        <time>2015-08-04T16:47:35Z</time>
      </trkpt>
      <trkpt lat="44.77855" lon="1.70071">
        <ele>305.308</ele>
        <time>2020-03-06T21:14:37Z</time>
      </trkpt>
      <trkpt lat="44.77871" lon="1.70108">
        <ele>307.297</ele>
        <time>2020-03-06T21:14:57Z</time>
      </trkpt>
      <trkpt lat="44.7788" lon="1.70151">
        <ele>309.382</ele>
        <time>2020-03-06T21:15:17Z</time>
      </trkpt>
      <trkpt lat="44.779" lon="1.70166">
        <ele>308.352</ele>
        <time>2020-03-06T21:15:37Z</time>
      </trkpt>
      <trkpt lat="44.77926" lon="1.70217">
        <ele>307.554</ele>
        <time>2020-03-06T21:15:57Z</time>
      </trkpt>
      <trkpt lat="44.77955" lon="1.70342">
        <ele>305.626</ele>
        <time>2020-03-06T21:16:17Z</time>
      </trkpt>
      <trkpt lat="44.77954" lon="1.70481">
        <ele>305.447</ele>
        <time>2020-03-06T21:16:37Z</time>
      </trkpt>
      <trkpt lat="44.77978" lon="1.70556">
        <ele>302.693</ele>
        <time>2020-03-06T21:16:57Z</time>
      </trkpt>
      <trkpt lat="44.7799" lon="1.7064">
        <ele>301.375</ele>
        <time>2020-03-06T21:17:17Z</time>
      </trkpt>
      <trkpt lat="44.77976" lon="1.70709">
        <ele>301.594</ele>
        <time>2020-03-06T21:17:37Z</time>
      </trkpt>
      <trkpt lat="44.77986" lon="1.70749">
        <ele>300.657</ele>
        <time>2020-03-06T21:17:57Z</time>
      </trkpt>
      <trkpt lat="44.78004" lon="1.70829">
        <ele>297.622</ele>
        <time>2020-03-06T21:18:17Z</time>
      </trkpt>
      <trkpt lat="44.78014" lon="1.70928">
        <ele>302.008</ele>
        <time>2020-03-06T21:18:37Z</time>
      </trkpt>
      <trkpt lat="44.7803" lon="1.7093">
        <ele>300.715</ele>
        <time>2020-03-06T21:18:57Z</time>
      </trkpt>
      <trkpt lat="44.7803" lon="1.70878">
        <ele>298.09</ele>
        <time>2020-03-06T21:19:17Z</time>
      </trkpt>
      <trkpt lat="44.78043" lon="1.70872">
        <ele>295.52</ele>
        <time>2020-03-06T21:19:37Z</time>
      </trkpt>
      <trkpt lat="44.78089" lon="1.70904">
        <ele>291.892</ele>
        <time>2020-03-06T21:19:57Z</time>
      </trkpt>
      <trkpt lat="44.78156" lon="1.70913">
        <ele>282.754</ele>
        <time>2020-03-06T21:20:17Z</time>
      </trkpt>
      <trkpt lat="44.78142" lon="1.70958">
        <ele>280.965</ele>
        <time>2020-03-06T21:20:37Z</time>
      </trkpt>
      <trkpt lat="44.78152" lon="1.71033">
        <ele>277.911</ele>
        <time>2020-03-06T21:20:57Z</time>
      </trkpt>
      <trkpt lat="44.78147" lon="1.71106">
        <ele>285.713</ele>
        <time>2020-03-06T21:21:17Z</time>
      </trkpt>
      <trkpt lat="44.78177" lon="1.71228">
        <ele>281.662</ele>
        <time>2020-03-06T21:21:37Z</time>
      </trkpt>
      <trkpt lat="44.78162" lon="1.71275">
        <ele>281.083</ele>
        <time>2020-03-06T21:21:57Z</time>
      </trkpt>
      <trkpt lat="44.78037" lon="1.71402">
        <ele>286.911</ele>
        <time>2020-03-06T21:22:17Z</time>
      </trkpt>
      <trkpt lat="44.78062" lon="1.71528">
        <ele>299.208</ele>
        <time>2020-03-06T21:22:37Z</time>
      </trkpt>
      <trkpt lat="44.78005" lon="1.71597">
        <ele>299.832</ele>
        <time>2020-03-06T21:22:57Z</time>
      </trkpt>
      <trkpt lat="44.77915" lon="1.71807">
        <ele>293.737</ele>
        <time>2020-03-06T21:23:17Z</time>
      </trkpt>
      <trkpt lat="44.77874" lon="1.71938">
        <ele>292.267</ele>
        <time>2020-03-06T21:23:37Z</time>
      </trkpt>
      <trkpt lat="44.77914" lon="1.7205">
        <ele>297.399</ele>
        <time>2020-03-06T21:23:57Z</time>
      </trkpt>
      <trkpt lat="44.77882" lon="1.7214">
        <ele>301.181</ele>
        <time>2020-03-06T21:24:17Z</time>
      </trkpt>
      <trkpt lat="44.77813" lon="1.72221">
        <ele>296.082</ele>
        <time>2020-03-06T21:24:37Z</time>
      </trkpt>
      <trkpt lat="44.77789" lon="1.72221">
        <ele>293.158</ele>
        <time>2020-03-06T21:24:57Z</time>
      </trkpt>
      <trkpt lat="44.77751" lon="1.72288">
        <ele>293.86</ele>
        <time>2020-03-06T21:25:17Z</time>
      </trkpt>
      <trkpt lat="44.77655" lon="1.72267">
        <ele>289.266</ele>
        <time>2020-03-06T21:25:37Z</time>
      </trkpt>
      <trkpt lat="44.7765" lon="1.72378">
        <ele>286.829</ele>
        <time>2020-03-06T21:25:57Z</time>
      </trkpt>
    </trkseg>
  </trk>
</gpx>